createdAt,value
2023-02-22T00:04:02.881Z,6.20
2023-02-22T00:09:04.929Z,4.85
2023-02-22T00:14:07.808Z,4.97
2023-02-22T00:19:10.876Z,6.50
2023-02-22T00:24:24.941Z,4.68
2023-02-22T00:29:27.043Z,5.82
2023-02-22T00:34:28.950Z,4.68
2023-02-22T00:39:31.346Z,7.32
2023-02-22T00:44:34.391Z,8.10
2023-02-22T00:49:37.280Z,6.88
2023-02-22T00:54:39.614Z,7.05
2023-02-22T00:59:42.020Z,9.32
2023-02-22T01:04:44.817Z,8.95
2023-02-22T01:09:46.805Z,8.63
2023-02-22T01:14:48.641Z,6.20
2023-02-22T01:19:51.453Z,7.70
2023-02-22T01:24:55.607Z,5.50
2023-02-22T01:29:57.364Z,6.90
2023-02-22T01:35:01.410Z,4.78
2023-02-22T01:40:07.342Z,5.18
2023-02-22T01:45:30.846Z,5.47
2023-02-22T01:50:40.118Z,8.23
2023-02-22T01:55:42.879Z,6.72
2023-02-22T02:00:44.886Z,5.05
2023-02-22T02:05:47.604Z,8.25
2023-02-22T02:10:49.953Z,6.25
2023-02-22T02:15:55.262Z,5.57
2023-02-22T02:21:11.192Z,6.45
2023-02-22T02:26:25.003Z,5.32
2023-02-22T02:31:37.326Z,6.07
2023-02-22T02:36:47.605Z,4.20
2023-02-22T02:41:52.062Z,9.45
2023-02-22T02:46:59.699Z,5.30
2023-02-22T02:52:04.331Z,7.63
2023-02-22T02:57:06.819Z,8.23
2023-02-22T03:02:16.879Z,6.88
2023-02-22T03:07:43.477Z,10.45
2023-02-22T03:12:53.014Z,7.07
2023-02-22T03:18:10.686Z,6.05
2023-02-22T03:23:15.535Z,7.15
2023-02-22T03:28:20.178Z,11.75
2023-02-22T03:33:38.724Z,7.95
2023-02-22T03:38:42.775Z,9.97
2023-02-22T03:43:51.345Z,7.47
2023-02-22T03:49:03.518Z,7.22
2023-02-22T03:54:16.655Z,12.38
2023-02-22T03:59:26.286Z,5.88
2023-02-22T04:04:28.355Z,8.70
2023-02-22T04:09:30.943Z,4.50
2023-02-22T04:14:33.026Z,8.60
2023-02-22T04:19:35.509Z,9.38
2023-02-22T04:24:37.703Z,11.82
2023-02-22T04:29:39.547Z,6.70
2023-02-22T04:34:42.484Z,9.68
2023-02-22T04:39:44.957Z,7.60
2023-02-22T04:44:46.933Z,5.97
2023-02-22T04:49:49.040Z,6.60
2023-02-22T04:54:50.928Z,7.55
2023-02-22T04:59:53.867Z,9.30
2023-02-22T05:04:58.545Z,9.73
2023-02-22T05:10:03.116Z,8.10
2023-02-22T05:15:07.205Z,9.18
2023-02-22T05:20:21.914Z,10.48
2023-02-22T05:25:24.651Z,10.38
2023-02-22T05:30:30.212Z,7.22
2023-02-22T05:35:32.665Z,7.82
2023-02-22T05:40:35.204Z,11.75
2023-02-22T05:45:37.109Z,10.15
2023-02-22T05:50:39.047Z,7.70
2023-02-22T05:55:40.800Z,9.27
2023-02-22T06:00:42.769Z,9.50
2023-02-22T06:05:44.757Z,10.20
2023-02-22T06:10:46.637Z,7.70
2023-02-22T06:15:48.453Z,8.80
2023-02-22T06:20:51.037Z,9.10
2023-02-22T06:25:53.422Z,10.55
2023-02-22T06:30:55.283Z,9.63
2023-02-22T06:35:57.174Z,8.88
2023-02-22T06:40:59.756Z,10.13
2023-02-22T06:46:01.884Z,11.77
2023-02-22T06:51:04.384Z,9.80
2023-02-22T06:56:06.608Z,6.88
2023-02-22T07:01:08.783Z,13.85
2023-02-22T07:06:10.885Z,11.55
2023-02-22T07:11:12.656Z,13.57
2023-02-22T07:16:14.571Z,10.65
2023-02-22T07:21:16.628Z,11.63
2023-02-22T07:26:23.143Z,10.68
2023-02-22T07:31:24.944Z,7.63
2023-02-22T07:36:26.987Z,9.70
2023-02-22T07:41:28.829Z,10.38
2023-02-22T07:46:31.037Z,9.02
2023-02-22T07:51:32.965Z,14.57
2023-02-22T07:56:35.051Z,8.38
2023-02-22T08:01:37.573Z,9.55
2023-02-22T08:06:39.838Z,10.57
2023-02-22T08:11:41.823Z,11.95
2023-02-22T08:16:43.741Z,8.55
2023-02-22T08:21:45.583Z,12.65
2023-02-22T08:26:47.873Z,9.55
2023-02-22T08:31:55.376Z,10.40
2023-02-22T08:42:02.444Z,8.88
2023-02-22T08:47:04.894Z,13.23
2023-02-22T08:52:06.848Z,9.27
2023-02-22T08:57:08.705Z,11.32
2023-02-22T09:02:20.503Z,8.05
2023-02-22T09:07:22.629Z,9.32
2023-02-22T09:12:24.429Z,9.35
2023-02-22T09:17:26.293Z,8.68
2023-02-22T09:22:28.435Z,11.63
2023-02-22T09:27:30.277Z,12.82
2023-02-22T09:32:32.314Z,7.07
2023-02-22T09:37:34.371Z,14.90
2023-02-22T09:42:45.707Z,11.35
2023-02-22T09:47:58.524Z,9.80
2023-02-22T09:53:32.332Z,9.48
2023-02-22T09:58:43.188Z,8.18
2023-02-22T10:03:56.726Z,8.68
2023-02-22T10:09:01.477Z,11.05
2023-02-22T10:14:15.059Z,9.82
2023-02-22T10:19:22.656Z,7.63
2023-02-22T10:24:53.964Z,6.72
2023-02-22T10:30:25.138Z,8.85
2023-02-22T10:35:32.883Z,8.40
2023-02-22T10:40:35.155Z,6.63
2023-02-22T10:45:37.559Z,8.73
2023-02-22T10:50:43.568Z,5.93
2023-02-22T10:56:07.760Z,5.05
2023-02-22T11:01:35.465Z,6.78
2023-02-22T11:06:39.178Z,7.63
2023-02-22T11:11:46.908Z,6.78
2023-02-22T11:16:54.754Z,7.93
2023-02-22T11:27:07.369Z,7.43
2023-02-22T11:32:22.674Z,8.65
2023-02-22T11:37:34.886Z,7.47
2023-02-22T11:42:36.685Z,8.70
2023-02-22T11:48:00.599Z,6.60
2023-02-22T11:53:05.122Z,6.80
2023-02-22T11:58:24.247Z,4.97
2023-02-22T12:03:47.509Z,6.13
2023-02-22T12:08:55.015Z,6.88
2023-02-22T12:14:24.097Z,5.63
2023-02-22T12:19:41.103Z,8.13
2023-02-22T12:24:53.363Z,6.95
2023-02-22T12:30:13.024Z,9.40
2023-02-22T12:35:20.877Z,6.13
2023-02-22T12:40:45.236Z,5.82
2023-02-22T12:46:04.547Z,5.60
2023-02-22T12:51:32.433Z,5.78
2023-02-22T12:56:43.845Z,6.03
2023-02-22T13:01:54.094Z,6.70
2023-02-22T13:07:18.723Z,7.57
2023-02-22T13:12:33.817Z,6.60
2023-02-22T13:17:50.948Z,5.68
2023-02-22T13:23:01.738Z,6.75
2023-02-22T13:28:29.241Z,5.95
2023-02-22T13:33:55.766Z,6.20
2023-02-22T13:39:03.518Z,5.72
2023-02-22T13:44:45.281Z,9.65
2023-02-22T13:50:02.514Z,6.15
2023-02-22T13:55:12.293Z,9.80
2023-02-22T14:00:18.372Z,5.40
2023-02-22T14:05:57.696Z,4.72
2023-02-22T14:11:06.758Z,4.47
2023-02-22T14:16:19.441Z,5.03
2023-02-22T14:21:24.983Z,5.53
2023-02-22T14:26:28.583Z,5.15
2023-02-22T14:31:36.903Z,4.40
2023-02-22T14:36:51.042Z,3.75
2023-02-22T14:42:06.419Z,6.65
2023-02-22T14:47:22.297Z,3.35
2023-02-22T14:52:30.303Z,6.22
2023-02-22T14:57:42.370Z,5.43
2023-02-22T15:02:44.157Z,4.38
2023-02-22T15:08:14.493Z,5.05
2023-02-22T15:13:19.344Z,4.07
2023-02-22T15:18:30.289Z,4.47
2023-02-22T15:23:45.288Z,4.85
2023-02-22T15:28:47.685Z,6.28
2023-02-22T15:33:53.071Z,4.07
2023-02-22T15:38:58.497Z,12.00
2023-02-22T15:44:17.684Z,6.03
2023-02-22T15:49:25.916Z,4.72
2023-02-22T15:54:28.316Z,6.45
2023-02-22T15:59:33.842Z,4.32
2023-02-22T16:04:35.965Z,4.63
2023-02-22T16:09:37.712Z,4.35
2023-02-22T16:14:42.963Z,8.80
2023-02-22T16:19:45.226Z,7.90
2023-02-22T16:24:52.288Z,7.28
2023-02-22T16:30:25.457Z,9.90
2023-02-22T16:35:29.434Z,12.18
2023-02-22T16:40:34.636Z,11.48
2023-02-22T16:45:36.598Z,14.20
2023-02-22T16:50:38.357Z,12.65
2023-02-22T16:55:44.824Z,15.85
2023-02-22T17:00:46.588Z,11.70
2023-02-22T17:05:48.522Z,30.27
2023-02-22T17:10:52.969Z,16.70
2023-02-22T17:15:56.473Z,12.30
2023-02-22T17:20:58.300Z,17.92
2023-02-22T17:26:04.725Z,13.80
2023-02-22T17:31:07.425Z,31.60
2023-02-22T17:36:09.253Z,15.10
2023-02-22T17:41:11.015Z,19.65
2023-02-22T17:46:13.131Z,10.93
2023-02-22T17:51:14.986Z,13.68
2023-02-22T17:56:18.853Z,12.25
2023-02-22T18:01:27.244Z,13.00
2023-02-22T18:06:32.834Z,13.85
2023-02-22T18:11:34.677Z,12.82
2023-02-22T18:16:38.997Z,17.40
2023-02-22T18:21:40.736Z,13.25
2023-02-22T18:26:43.156Z,12.30
2023-02-22T18:31:45.644Z,12.40
2023-02-22T18:36:48.703Z,13.50
2023-02-22T18:41:50.575Z,12.60
2023-02-22T18:46:53.608Z,13.40
2023-02-22T18:51:55.743Z,11.93
2023-02-22T18:56:58.068Z,17.63
2023-02-22T19:02:00.479Z,13.18
2023-02-22T19:07:02.283Z,17.20
2023-02-22T19:12:04.378Z,15.98
2023-02-22T19:17:07.537Z,19.85
2023-02-22T19:22:10.329Z,13.77
2023-02-22T19:27:13.616Z,15.05
2023-02-22T19:32:17.548Z,17.75
2023-02-22T19:37:22.855Z,21.27
2023-02-22T19:42:24.881Z,12.45
2023-02-22T19:47:26.779Z,12.60
2023-02-22T19:52:29.012Z,13.30
2023-02-22T19:57:31.004Z,17.85
2023-02-22T20:02:32.770Z,13.00
2023-02-22T20:07:34.642Z,15.60
2023-02-22T20:12:36.429Z,14.40
2023-02-22T20:17:38.227Z,12.60
2023-02-22T20:22:40.660Z,21.45
2023-02-22T20:27:42.489Z,15.65
2023-02-22T20:32:45.101Z,14.88
2023-02-22T20:37:47.191Z,18.20
2023-02-22T20:42:49.032Z,15.38
2023-02-22T20:47:52.216Z,16.70
2023-02-22T20:52:54.062Z,17.27
2023-02-22T20:57:55.886Z,14.77
2023-02-22T21:02:57.771Z,15.27
2023-02-22T21:08:01.043Z,17.55
2023-02-22T21:13:05.507Z,13.60
2023-02-22T21:18:07.373Z,16.67
2023-02-22T21:23:11.187Z,15.75
2023-02-22T21:28:13.087Z,17.60
2023-02-22T21:33:17.783Z,18.92
2023-02-22T21:38:22.249Z,17.52
2023-02-22T21:43:25.425Z,14.48
2023-02-22T21:48:27.290Z,17.55
2023-02-22T21:53:29.066Z,17.30
2023-02-22T21:58:31.002Z,17.25
2023-02-22T22:03:33.343Z,19.55
2023-02-22T22:08:40.391Z,20.85
2023-02-22T22:13:42.432Z,21.07
2023-02-22T22:18:45.783Z,15.18
2023-02-22T22:23:47.876Z,20.42
2023-02-22T22:28:54.079Z,15.52
2023-02-22T22:33:57.088Z,15.77
2023-02-22T22:38:58.896Z,14.07
2023-02-22T22:44:00.734Z,17.05
2023-02-22T22:49:02.560Z,14.32
2023-02-22T22:54:09.473Z,18.60
2023-02-22T22:59:13.563Z,15.88
2023-02-22T23:04:17.289Z,17.75
2023-02-22T23:09:34.922Z,15.48
2023-02-22T23:14:40.012Z,19.00
2023-02-22T23:19:47.104Z,15.18
2023-02-22T23:24:48.960Z,17.83
2023-02-22T23:29:52.511Z,16.08
2023-02-22T23:34:54.577Z,21.33
2023-02-22T23:39:56.362Z,16.50
2023-02-22T23:44:58.758Z,17.15
2023-02-22T23:50:00.568Z,18.77
2023-02-22T23:55:05.814Z,16.40
